sensor_id;sensor_type;location;lat;lon;timestamp;P1;durP1;ratioP1;P2;durP2;ratioP2
66970;SDS011;53901;51.466;-2.588;2022-07-10T00:00:04;4.97;;;1.13;;
66970;SDS011;53901;51.466;-2.588;2022-07-10T00:02:31;5.65;;;0.98;;
66970;SDS011;53901;51.466;-2.588;2022-07-10T00:04:56;3.03;;;0.90;;
66970;SDS011;53901;51.466;-2.588;2022-07-10T00:07:22;18.67;;;1.50;;
66970;SDS011;53901;51.466;-2.588;2022-07-10T00:09:47;5.47;;;1.60;;
66970;SDS011;53901;51.466;-2.588;2022-07-10T00:12:13;5.63;;;1.80;;
66970;SDS011;53901;51.466;-2.588;2022-07-10T00:14:38;5.20;;;1.83;;
66970;SDS011;53901;51.466;-2.588;2022-07-10T00:17:04;2.78;;;1.10;;
66970;SDS011;53901;51.466;-2.588;2022-07-10T00:19:29;2.30;;;1.15;;
66970;SDS011;53901;51.466;-2.588;2022-07-10T00:21:54;8.15;;;2.22;;
66970;SDS011;53901;51.466;-2.588;2022-07-10T00:24:21;5.68;;;1.20;;
66970;SDS011;53901;51.466;-2.588;2022-07-10T00:26:47;3.60;;;1.20;;
66970;SDS011;53901;51.466;-2.588;2022-07-10T00:29:13;4.43;;;1.30;;
66970;SDS011;53901;51.466;-2.588;2022-07-10T00:31:38;2.53;;;1.73;;
66970;SDS011;53901;51.466;-2.588;2022-07-10T00:34:04;3.67;;;2.25;;
66970;SDS011;53901;51.466;-2.588;2022-07-10T00:36:29;1.77;;;1.30;;
66970;SDS011;53901;51.466;-2.588;2022-07-10T00:38:55;2.22;;;1.70;;
66970;SDS011;53901;51.466;-2.588;2022-07-10T00:41:21;1.98;;;1.55;;
66970;SDS011;53901;51.466;-2.588;2022-07-10T00:46:19;2.70;;;1.65;;
66970;SDS011;53901;51.466;-2.588;2022-07-10T00:48:47;1.83;;;1.17;;
66970;SDS011;53901;51.466;-2.588;2022-07-10T00:51:16;1.25;;;1.00;;
66970;SDS011;53901;51.466;-2.588;2022-07-10T00:53:42;2.47;;;1.30;;
66970;SDS011;53901;51.466;-2.588;2022-07-10T00:56:10;1.85;;;1.02;;
66970;SDS011;53901;51.466;-2.588;2022-07-10T00:58:35;2.13;;;1.10;;
66970;SDS011;53901;51.466;-2.588;2022-07-10T01:01:01;2.53;;;1.10;;
66970;SDS011;53901;51.466;-2.588;2022-07-10T01:03:27;2.25;;;0.90;;
66970;SDS011;53901;51.466;-2.588;2022-07-10T01:05:53;4.50;;;2.15;;
66970;SDS011;53901;51.466;-2.588;2022-07-10T01:08:19;4.30;;;1.02;;
66970;SDS011;53901;51.466;-2.588;2022-07-10T01:10:45;2.80;;;1.40;;
66970;SDS011;53901;51.466;-2.588;2022-07-10T01:13:10;1.50;;;1.15;;
66970;SDS011;53901;51.466;-2.588;2022-07-10T01:15:36;1.38;;;0.90;;
66970;SDS011;53901;51.466;-2.588;2022-07-10T01:18:02;2.47;;;1.38;;
66970;SDS011;53901;51.466;-2.588;2022-07-10T01:20:31;1.92;;;1.20;;
66970;SDS011;53901;51.466;-2.588;2022-07-10T01:22:57;2.33;;;1.30;;
66970;SDS011;53901;51.466;-2.588;2022-07-10T01:25:22;2.90;;;1.20;;
66970;SDS011;53901;51.466;-2.588;2022-07-10T01:27:49;7.00;;;2.85;;
66970;SDS011;53901;51.466;-2.588;2022-07-10T01:30:15;4.00;;;1.85;;
66970;SDS011;53901;51.466;-2.588;2022-07-10T01:32:41;3.67;;;1.30;;
66970;SDS011;53901;51.466;-2.588;2022-07-10T01:35:06;1.95;;;1.30;;
66970;SDS011;53901;51.466;-2.588;2022-07-10T01:37:33;6.25;;;4.65;;
66970;SDS011;53901;51.466;-2.588;2022-07-10T01:39:59;2.53;;;1.65;;
66970;SDS011;53901;51.466;-2.588;2022-07-10T01:42:24;1.60;;;1.20;;
66970;SDS011;53901;51.466;-2.588;2022-07-10T01:44:49;1.83;;;1.15;;
66970;SDS011;53901;51.466;-2.588;2022-07-10T01:47:18;2.17;;;1.02;;
66970;SDS011;53901;51.466;-2.588;2022-07-10T01:49:44;3.70;;;1.73;;
66970;SDS011;53901;51.466;-2.588;2022-07-10T01:52:12;3.70;;;1.88;;
66970;SDS011;53901;51.466;-2.588;2022-07-10T01:54:37;3.17;;;1.98;;
66970;SDS011;53901;51.466;-2.588;2022-07-10T01:57:03;3.03;;;1.20;;
66970;SDS011;53901;51.466;-2.588;2022-07-10T01:59:31;1.50;;;1.08;;
66970;SDS011;53901;51.466;-2.588;2022-07-10T02:01:56;1.95;;;1.30;;
66970;SDS011;53901;51.466;-2.588;2022-07-10T02:04:22;3.70;;;1.35;;
66970;SDS011;53901;51.466;-2.588;2022-07-10T02:07:06;2.00;;;1.20;;
66970;SDS011;53901;51.466;-2.588;2022-07-10T02:09:36;8.07;;;4.85;;
66970;SDS011;53901;51.466;-2.588;2022-07-10T02:12:02;1.88;;;1.40;;
66970;SDS011;53901;51.466;-2.588;2022-07-10T02:14:28;2.15;;;1.42;;
66970;SDS011;53901;51.466;-2.588;2022-07-10T02:16:53;2.97;;;1.85;;
66970;SDS011;53901;51.466;-2.588;2022-07-10T02:19:19;4.05;;;2.05;;
66970;SDS011;53901;51.466;-2.588;2022-07-10T02:21:44;3.47;;;1.50;;
66970;SDS011;53901;51.466;-2.588;2022-07-10T02:24:11;2.85;;;1.45;;
66970;SDS011;53901;51.466;-2.588;2022-07-10T02:26:36;2.00;;;1.38;;
66970;SDS011;53901;51.466;-2.588;2022-07-10T02:29:02;4.25;;;1.75;;
66970;SDS011;53901;51.466;-2.588;2022-07-10T02:31:27;1.55;;;1.38;;
66970;SDS011;53901;51.466;-2.588;2022-07-10T02:33:53;2.60;;;1.73;;
66970;SDS011;53901;51.466;-2.588;2022-07-10T02:36:19;1.85;;;1.40;;
66970;SDS011;53901;51.466;-2.588;2022-07-10T02:38:44;1.75;;;1.50;;
66970;SDS011;53901;51.466;-2.588;2022-07-10T02:41:10;5.40;;;1.33;;
66970;SDS011;53901;51.466;-2.588;2022-07-10T02:43:35;1.83;;;1.42;;
66970;SDS011;53901;51.466;-2.588;2022-07-10T02:46:00;1.80;;;1.50;;
66970;SDS011;53901;51.466;-2.588;2022-07-10T02:48:27;2.08;;;1.55;;
66970;SDS011;53901;51.466;-2.588;2022-07-10T02:50:52;5.05;;;1.80;;
66970;SDS011;53901;51.466;-2.588;2022-07-10T02:53:18;2.53;;;1.75;;
66970;SDS011;53901;51.466;-2.588;2022-07-10T02:55:43;4.20;;;1.60;;
66970;SDS011;53901;51.466;-2.588;2022-07-10T02:58:09;3.67;;;1.63;;
66970;SDS011;53901;51.466;-2.588;2022-07-10T03:00:35;1.83;;;1.50;;
66970;SDS011;53901;51.466;-2.588;2022-07-10T03:03:01;1.95;;;1.50;;
66970;SDS011;53901;51.466;-2.588;2022-07-10T03:05:26;2.22;;;1.70;;
66970;SDS011;53901;51.466;-2.588;2022-07-10T03:07:51;3.42;;;1.80;;
66970;SDS011;53901;51.466;-2.588;2022-07-10T03:10:17;4.25;;;1.92;;
66970;SDS011;53901;51.466;-2.588;2022-07-10T03:12:42;5.78;;;2.50;;
66970;SDS011;53901;51.466;-2.588;2022-07-10T03:15:08;3.75;;;2.13;;
66970;SDS011;53901;51.466;-2.588;2022-07-10T03:17:34;2.72;;;2.03;;
66970;SDS011;53901;51.466;-2.588;2022-07-10T03:19:59;3.10;;;2.00;;
66970;SDS011;53901;51.466;-2.588;2022-07-10T03:22:25;3.03;;;1.80;;
66970;SDS011;53901;51.466;-2.588;2022-07-10T03:24:51;3.30;;;1.52;;
66970;SDS011;53901;51.466;-2.588;2022-07-10T03:27:16;2.67;;;1.80;;
66970;SDS011;53901;51.466;-2.588;2022-07-10T03:29:41;2.28;;;1.70;;
66970;SDS011;53901;51.466;-2.588;2022-07-10T03:32:07;2.83;;;1.85;;
66970;SDS011;53901;51.466;-2.588;2022-07-10T03:34:33;2.50;;;1.88;;
66970;SDS011;53901;51.466;-2.588;2022-07-10T03:37:01;4.38;;;1.85;;
66970;SDS011;53901;51.466;-2.588;2022-07-10T03:39:26;3.55;;;2.00;;
66970;SDS011;53901;51.466;-2.588;2022-07-10T03:41:52;2.30;;;1.80;;
66970;SDS011;53901;51.466;-2.588;2022-07-10T03:44:17;2.78;;;2.00;;
66970;SDS011;53901;51.466;-2.588;2022-07-10T03:46:43;2.15;;;1.88;;
66970;SDS011;53901;51.466;-2.588;2022-07-10T03:49:08;2.28;;;1.90;;
66970;SDS011;53901;51.466;-2.588;2022-07-10T03:51:33;2.63;;;2.05;;
66970;SDS011;53901;51.466;-2.588;2022-07-10T03:53:59;3.20;;;2.00;;
66970;SDS011;53901;51.466;-2.588;2022-07-10T03:56:24;3.08;;;2.00;;
66970;SDS011;53901;51.466;-2.588;2022-07-10T03:59:08;2.60;;;1.73;;
66970;SDS011;53901;51.466;-2.588;2022-07-10T04:01:34;2.83;;;1.92;;
66970;SDS011;53901;51.466;-2.588;2022-07-10T04:03:59;3.15;;;1.70;;
66970;SDS011;53901;51.466;-2.588;2022-07-10T04:06:24;2.58;;;1.80;;
66970;SDS011;53901;51.466;-2.588;2022-07-10T04:08:50;2.92;;;1.77;;
66970;SDS011;53901;51.466;-2.588;2022-07-10T04:11:15;2.20;;;1.90;;
66970;SDS011;53901;51.466;-2.588;2022-07-10T04:13:41;3.40;;;1.90;;
66970;SDS011;53901;51.466;-2.588;2022-07-10T04:16:06;2.63;;;2.00;;
66970;SDS011;53901;51.466;-2.588;2022-07-10T04:18:32;2.83;;;1.90;;
66970;SDS011;53901;51.466;-2.588;2022-07-10T04:20:57;4.88;;;2.30;;
66970;SDS011;53901;51.466;-2.588;2022-07-10T04:23:23;2.70;;;1.95;;
66970;SDS011;53901;51.466;-2.588;2022-07-10T04:25:48;6.40;;;2.13;;
66970;SDS011;53901;51.466;-2.588;2022-07-10T04:28:13;3.90;;;1.90;;
66970;SDS011;53901;51.466;-2.588;2022-07-10T04:30:39;5.47;;;2.08;;
66970;SDS011;53901;51.466;-2.588;2022-07-10T04:33:04;3.85;;;2.30;;
66970;SDS011;53901;51.466;-2.588;2022-07-10T04:35:30;3.75;;;2.13;;
66970;SDS011;53901;51.466;-2.588;2022-07-10T04:37:55;2.70;;;2.10;;
66970;SDS011;53901;51.466;-2.588;2022-07-10T04:40:22;4.07;;;2.35;;
66970;SDS011;53901;51.466;-2.588;2022-07-10T04:42:47;6.22;;;2.10;;
66970;SDS011;53901;51.466;-2.588;2022-07-10T04:45:13;3.63;;;2.33;;
66970;SDS011;53901;51.466;-2.588;2022-07-10T04:47:38;3.47;;;2.25;;
66970;SDS011;53901;51.466;-2.588;2022-07-10T04:50:04;3.58;;;2.15;;
66970;SDS011;53901;51.466;-2.588;2022-07-10T04:52:30;4.63;;;2.88;;
66970;SDS011;53901;51.466;-2.588;2022-07-10T04:54:55;4.40;;;2.60;;
66970;SDS011;53901;51.466;-2.588;2022-07-10T04:57:21;4.25;;;2.70;;
66970;SDS011;53901;51.466;-2.588;2022-07-10T04:59:46;4.97;;;2.38;;
66970;SDS011;53901;51.466;-2.588;2022-07-10T05:02:11;4.00;;;2.53;;
66970;SDS011;53901;51.466;-2.588;2022-07-10T05:04:37;4.32;;;2.60;;
66970;SDS011;53901;51.466;-2.588;2022-07-10T05:07:03;4.68;;;2.67;;
66970;SDS011;53901;51.466;-2.588;2022-07-10T05:09:28;5.78;;;2.70;;
66970;SDS011;53901;51.466;-2.588;2022-07-10T05:11:54;3.92;;;3.00;;
66970;SDS011;53901;51.466;-2.588;2022-07-10T05:14:19;3.80;;;2.70;;
66970;SDS011;53901;51.466;-2.588;2022-07-10T05:16:45;4.07;;;2.90;;
66970;SDS011;53901;51.466;-2.588;2022-07-10T05:19:10;6.30;;;3.58;;
66970;SDS011;53901;51.466;-2.588;2022-07-10T05:21:35;4.80;;;3.47;;
66970;SDS011;53901;51.466;-2.588;2022-07-10T05:24:01;5.55;;;3.88;;
66970;SDS011;53901;51.466;-2.588;2022-07-10T05:26:26;5.47;;;3.90;;
66970;SDS011;53901;51.466;-2.588;2022-07-10T05:28:52;6.90;;;4.60;;
66970;SDS011;53901;51.466;-2.588;2022-07-10T05:31:17;6.38;;;4.22;;
66970;SDS011;53901;51.466;-2.588;2022-07-10T05:33:43;6.55;;;4.25;;
66970;SDS011;53901;51.466;-2.588;2022-07-10T05:36:08;7.13;;;4.72;;
66970;SDS011;53901;51.466;-2.588;2022-07-10T05:38:34;9.30;;;4.72;;
66970;SDS011;53901;51.466;-2.588;2022-07-10T05:40:59;5.80;;;4.13;;
66970;SDS011;53901;51.466;-2.588;2022-07-10T05:43:25;7.53;;;5.63;;
66970;SDS011;53901;51.466;-2.588;2022-07-10T05:45:50;7.35;;;5.28;;
66970;SDS011;53901;51.466;-2.588;2022-07-10T05:48:16;10.68;;;6.63;;
66970;SDS011;53901;51.466;-2.588;2022-07-10T05:50:41;10.07;;;7.13;;
66970;SDS011;53901;51.466;-2.588;2022-07-10T05:53:06;12.20;;;8.48;;
66970;SDS011;53901;51.466;-2.588;2022-07-10T05:55:35;11.98;;;8.10;;
66970;SDS011;53901;51.466;-2.588;2022-07-10T05:58:00;10.88;;;8.15;;
66970;SDS011;53901;51.466;-2.588;2022-07-10T06:00:26;11.60;;;8.15;;
66970;SDS011;53901;51.466;-2.588;2022-07-10T06:02:51;13.20;;;8.32;;
66970;SDS011;53901;51.466;-2.588;2022-07-10T06:05:17;10.80;;;8.60;;
66970;SDS011;53901;51.466;-2.588;2022-07-10T06:07:42;14.13;;;9.15;;
66970;SDS011;53901;51.466;-2.588;2022-07-10T06:10:07;12.15;;;8.77;;
66970;SDS011;53901;51.466;-2.588;2022-07-10T06:12:33;11.75;;;8.65;;
66970;SDS011;53901;51.466;-2.588;2022-07-10T06:14:58;12.85;;;7.97;;
66970;SDS011;53901;51.466;-2.588;2022-07-10T06:17:24;11.35;;;8.45;;
66970;SDS011;53901;51.466;-2.588;2022-07-10T06:19:49;12.13;;;8.30;;
66970;SDS011;53901;51.466;-2.588;2022-07-10T06:22:15;13.70;;;8.55;;
66970;SDS011;53901;51.466;-2.588;2022-07-10T06:24:59;13.60;;;8.73;;
66970;SDS011;53901;51.466;-2.588;2022-07-10T06:27:25;12.25;;;8.50;;
66970;SDS011;53901;51.466;-2.588;2022-07-10T06:29:51;12.32;;;9.05;;
66970;SDS011;53901;51.466;-2.588;2022-07-10T06:32:17;12.00;;;8.98;;
66970;SDS011;53901;51.466;-2.588;2022-07-10T06:34:42;12.48;;;9.00;;
66970;SDS011;53901;51.466;-2.588;2022-07-10T06:37:07;12.57;;;9.38;;
66970;SDS011;53901;51.466;-2.588;2022-07-10T06:39:33;13.55;;;9.27;;
66970;SDS011;53901;51.466;-2.588;2022-07-10T06:42:02;13.20;;;8.52;;
66970;SDS011;53901;51.466;-2.588;2022-07-10T06:44:28;11.55;;;8.85;;
66970;SDS011;53901;51.466;-2.588;2022-07-10T06:46:53;14.27;;;9.35;;
66970;SDS011;53901;51.466;-2.588;2022-07-10T06:49:39;10.90;;;8.30;;
66970;SDS011;53901;51.466;-2.588;2022-07-10T06:52:05;12.75;;;9.18;;
66970;SDS011;53901;51.466;-2.588;2022-07-10T06:54:31;13.82;;;9.45;;
66970;SDS011;53901;51.466;-2.588;2022-07-10T06:56:57;11.32;;;9.15;;
66970;SDS011;53901;51.466;-2.588;2022-07-10T06:59:22;11.07;;;8.80;;
66970;SDS011;53901;51.466;-2.588;2022-07-10T07:01:48;11.88;;;9.15;;
66970;SDS011;53901;51.466;-2.588;2022-07-10T07:04:13;11.65;;;9.13;;
66970;SDS011;53901;51.466;-2.588;2022-07-10T07:06:39;10.70;;;9.02;;
66970;SDS011;53901;51.466;-2.588;2022-07-10T07:09:04;10.82;;;9.07;;
66970;SDS011;53901;51.466;-2.588;2022-07-10T07:11:30;10.63;;;8.57;;
66970;SDS011;53901;51.466;-2.588;2022-07-10T07:13:55;10.43;;;8.40;;
66970;SDS011;53901;51.466;-2.588;2022-07-10T07:16:21;10.82;;;7.35;;
66970;SDS011;53901;51.466;-2.588;2022-07-10T07:18:52;9.63;;;7.65;;
66970;SDS011;53901;51.466;-2.588;2022-07-10T07:21:20;10.45;;;7.93;;
66970;SDS011;53901;51.466;-2.588;2022-07-10T07:24:04;10.50;;;8.05;;
66970;SDS011;53901;51.466;-2.588;2022-07-10T07:26:30;9.70;;;7.63;;
66970;SDS011;53901;51.466;-2.588;2022-07-10T07:28:56;10.77;;;7.72;;
66970;SDS011;53901;51.466;-2.588;2022-07-10T07:31:21;10.20;;;7.55;;
66970;SDS011;53901;51.466;-2.588;2022-07-10T07:33:47;10.23;;;7.88;;
66970;SDS011;53901;51.466;-2.588;2022-07-10T07:36:12;9.95;;;7.85;;
66970;SDS011;53901;51.466;-2.588;2022-07-10T07:38:38;11.93;;;8.07;;
66970;SDS011;53901;51.466;-2.588;2022-07-10T07:41:04;14.98;;;8.10;;
66970;SDS011;53901;51.466;-2.588;2022-07-10T07:43:29;10.70;;;7.72;;
66970;SDS011;53901;51.466;-2.588;2022-07-10T07:46:07;9.98;;;7.65;;
66970;SDS011;53901;51.466;-2.588;2022-07-10T07:48:41;8.73;;;7.57;;
66970;SDS011;53901;51.466;-2.588;2022-07-10T07:51:10;9.95;;;7.90;;
66970;SDS011;53901;51.466;-2.588;2022-07-10T07:53:45;10.73;;;7.82;;
66970;SDS011;53901;51.466;-2.588;2022-07-10T07:56:11;9.52;;;7.30;;
66970;SDS011;53901;51.466;-2.588;2022-07-10T07:58:36;9.68;;;7.57;;
66970;SDS011;53901;51.466;-2.588;2022-07-10T08:01:02;7.60;;;6.65;;
66970;SDS011;53901;51.466;-2.588;2022-07-10T08:03:27;9.10;;;7.45;;
66970;SDS011;53901;51.466;-2.588;2022-07-10T08:05:53;10.25;;;7.68;;
66970;SDS011;53901;51.466;-2.588;2022-07-10T08:08:18;18.55;;;8.52;;
66970;SDS011;53901;51.466;-2.588;2022-07-10T08:10:44;8.00;;;6.82;;
66970;SDS011;53901;51.466;-2.588;2022-07-10T08:13:09;12.75;;;7.53;;
66970;SDS011;53901;51.466;-2.588;2022-07-10T08:15:35;8.85;;;6.75;;
66970;SDS011;53901;51.466;-2.588;2022-07-10T08:18:00;9.85;;;7.10;;
66970;SDS011;53901;51.466;-2.588;2022-07-10T08:20:28;9.32;;;6.32;;
66970;SDS011;53901;51.466;-2.588;2022-07-10T08:22:54;9.68;;;6.43;;
66970;SDS011;53901;51.466;-2.588;2022-07-10T08:25:20;7.60;;;5.82;;
66970;SDS011;53901;51.466;-2.588;2022-07-10T08:27:45;8.20;;;5.90;;
66970;SDS011;53901;51.466;-2.588;2022-07-10T08:30:11;8.13;;;6.15;;
66970;SDS011;53901;51.466;-2.588;2022-07-10T08:32:37;6.90;;;5.90;;
66970;SDS011;53901;51.466;-2.588;2022-07-10T08:35:04;8.20;;;5.47;;
66970;SDS011;53901;51.466;-2.588;2022-07-10T08:37:30;7.50;;;5.70;;
66970;SDS011;53901;51.466;-2.588;2022-07-10T08:40:02;7.57;;;5.68;;
66970;SDS011;53901;51.466;-2.588;2022-07-10T08:42:28;8.82;;;5.60;;
66970;SDS011;53901;51.466;-2.588;2022-07-10T08:44:56;8.02;;;5.72;;
66970;SDS011;53901;51.466;-2.588;2022-07-10T08:47:21;7.20;;;5.32;;
66970;SDS011;53901;51.466;-2.588;2022-07-10T08:49:48;6.85;;;5.00;;
66970;SDS011;53901;51.466;-2.588;2022-07-10T08:52:25;6.70;;;5.18;;
66970;SDS011;53901;51.466;-2.588;2022-07-10T08:54:56;6.47;;;5.30;;
66970;SDS011;53901;51.466;-2.588;2022-07-10T08:57:25;7.35;;;5.47;;
66970;SDS011;53901;51.466;-2.588;2022-07-10T08:59:51;6.68;;;5.03;;
66970;SDS011;53901;51.466;-2.588;2022-07-10T09:02:17;7.07;;;5.03;;
66970;SDS011;53901;51.466;-2.588;2022-07-10T09:04:42;8.77;;;5.35;;
66970;SDS011;53901;51.466;-2.588;2022-07-10T09:07:08;8.77;;;5.13;;
66970;SDS011;53901;51.466;-2.588;2022-07-10T09:12:21;6.88;;;5.20;;
66970;SDS011;53901;51.466;-2.588;2022-07-10T09:14:48;7.93;;;5.20;;
66970;SDS011;53901;51.466;-2.588;2022-07-10T09:17:14;7.40;;;6.03;;
66970;SDS011;53901;51.466;-2.588;2022-07-10T09:19:39;8.75;;;5.82;;
66970;SDS011;53901;51.466;-2.588;2022-07-10T09:22:07;6.00;;;5.00;;
66970;SDS011;53901;51.466;-2.588;2022-07-10T09:24:40;7.63;;;5.32;;
66970;SDS011;53901;51.466;-2.588;2022-07-10T09:27:10;10.27;;;5.80;;
66970;SDS011;53901;51.466;-2.588;2022-07-10T09:32:17;8.23;;;5.45;;
66970;SDS011;53901;51.466;-2.588;2022-07-10T09:34:43;8.13;;;5.25;;
66970;SDS011;53901;51.466;-2.588;2022-07-10T09:39:52;7.68;;;5.43;;
66970;SDS011;53901;51.466;-2.588;2022-07-10T09:45:11;6.53;;;4.45;;
66970;SDS011;53901;51.466;-2.588;2022-07-10T09:47:53;6.57;;;4.25;;
66970;SDS011;53901;51.466;-2.588;2022-07-10T09:50:31;6.55;;;4.10;;
66970;SDS011;53901;51.466;-2.588;2022-07-10T09:53:05;4.47;;;3.60;;
66970;SDS011;53901;51.466;-2.588;2022-07-10T09:55:35;6.22;;;3.50;;
66970;SDS011;53901;51.466;-2.588;2022-07-10T09:58:02;4.38;;;3.35;;
66970;SDS011;53901;51.466;-2.588;2022-07-10T10:00:30;4.88;;;3.25;;
66970;SDS011;53901;51.466;-2.588;2022-07-10T10:05:28;4.80;;;2.80;;
66970;SDS011;53901;51.466;-2.588;2022-07-10T10:08:28;4.30;;;3.00;;
66970;SDS011;53901;51.466;-2.588;2022-07-10T10:10:51;4.85;;;3.20;;
66970;SDS011;53901;51.466;-2.588;2022-07-10T10:13:21;4.88;;;2.80;;
66970;SDS011;53901;51.466;-2.588;2022-07-10T10:15:48;4.85;;;3.03;;
66970;SDS011;53901;51.466;-2.588;2022-07-10T10:18:24;5.32;;;3.30;;
66970;SDS011;53901;51.466;-2.588;2022-07-10T10:20:50;4.63;;;3.10;;
66970;SDS011;53901;51.466;-2.588;2022-07-10T10:23:19;6.00;;;3.10;;
66970;SDS011;53901;51.466;-2.588;2022-07-10T10:25:46;4.40;;;3.03;;
66970;SDS011;53901;51.466;-2.588;2022-07-10T10:28:12;5.20;;;3.40;;
66970;SDS011;53901;51.466;-2.588;2022-07-10T10:30:42;4.43;;;3.40;;
66970;SDS011;53901;51.466;-2.588;2022-07-10T10:35:56;5.15;;;3.63;;
66970;SDS011;53901;51.466;-2.588;2022-07-10T10:38:22;5.90;;;3.00;;
66970;SDS011;53901;51.466;-2.588;2022-07-10T10:40:47;4.53;;;3.63;;
66970;SDS011;53901;51.466;-2.588;2022-07-10T10:43:17;4.90;;;3.40;;
66970;SDS011;53901;51.466;-2.588;2022-07-10T10:45:46;4.53;;;3.10;;
66970;SDS011;53901;51.466;-2.588;2022-07-10T10:48:12;4.28;;;3.13;;
66970;SDS011;53901;51.466;-2.588;2022-07-10T10:53:14;6.00;;;3.13;;
66970;SDS011;53901;51.466;-2.588;2022-07-10T10:55:42;3.75;;;2.88;;
66970;SDS011;53901;51.466;-2.588;2022-07-10T11:01:04;4.13;;;3.20;;
66970;SDS011;53901;51.466;-2.588;2022-07-10T11:03:30;4.57;;;3.20;;
66970;SDS011;53901;51.466;-2.588;2022-07-10T11:05:57;4.53;;;2.97;;
66970;SDS011;53901;51.466;-2.588;2022-07-10T11:13:57;3.63;;;3.10;;
66970;SDS011;53901;51.466;-2.588;2022-07-10T11:16:24;4.90;;;3.40;;
66970;SDS011;53901;51.466;-2.588;2022-07-10T11:18:52;5.88;;;3.88;;
66970;SDS011;53901;51.466;-2.588;2022-07-10T11:21:22;4.45;;;3.40;;
66970;SDS011;53901;51.466;-2.588;2022-07-10T11:28:53;4.65;;;3.22;;
66970;SDS011;53901;51.466;-2.588;2022-07-10T11:31:20;5.22;;;3.50;;
66970;SDS011;53901;51.466;-2.588;2022-07-10T11:33:48;5.05;;;3.80;;
66970;SDS011;53901;51.466;-2.588;2022-07-10T11:36:17;3.97;;;3.40;;
66970;SDS011;53901;51.466;-2.588;2022-07-10T11:38:44;4.97;;;3.67;;
66970;SDS011;53901;51.466;-2.588;2022-07-10T11:41:19;8.00;;;5.97;;
66970;SDS011;53901;51.466;-2.588;2022-07-10T11:43:48;3.08;;;2.78;;
66970;SDS011;53901;51.466;-2.588;2022-07-10T11:46:19;6.32;;;3.00;;
66970;SDS011;53901;51.466;-2.588;2022-07-10T11:48:46;4.90;;;3.20;;
66970;SDS011;53901;51.466;-2.588;2022-07-10T11:51:32;3.25;;;2.50;;
66970;SDS011;53901;51.466;-2.588;2022-07-10T11:54:02;3.08;;;2.67;;
66970;SDS011;53901;51.466;-2.588;2022-07-10T11:56:31;4.03;;;2.35;;
66970;SDS011;53901;51.466;-2.588;2022-07-10T12:01:26;3.25;;;2.65;;
66970;SDS011;53901;51.466;-2.588;2022-07-10T12:04:12;3.88;;;2.30;;
66970;SDS011;53901;51.466;-2.588;2022-07-10T12:06:39;2.80;;;2.30;;
66970;SDS011;53901;51.466;-2.588;2022-07-10T12:09:06;3.97;;;2.63;;
66970;SDS011;53901;51.466;-2.588;2022-07-10T12:11:33;3.33;;;2.60;;
66970;SDS011;53901;51.466;-2.588;2022-07-10T12:16:39;3.22;;;2.67;;
66970;SDS011;53901;51.466;-2.588;2022-07-10T12:19:07;3.83;;;2.30;;
66970;SDS011;53901;51.466;-2.588;2022-07-10T12:21:34;2.38;;;2.13;;
66970;SDS011;53901;51.466;-2.588;2022-07-10T12:24:00;5.45;;;2.78;;
66970;SDS011;53901;51.466;-2.588;2022-07-10T12:26:35;3.53;;;2.30;;
66970;SDS011;53901;51.466;-2.588;2022-07-10T12:29:02;2.90;;;2.25;;
66970;SDS011;53901;51.466;-2.588;2022-07-10T12:31:29;3.95;;;2.30;;
66970;SDS011;53901;51.466;-2.588;2022-07-10T12:34:02;4.22;;;3.03;;
66970;SDS011;53901;51.466;-2.588;2022-07-10T12:39:23;3.00;;;2.10;;
66970;SDS011;53901;51.466;-2.588;2022-07-10T12:42:07;2.78;;;2.33;;
66970;SDS011;53901;51.466;-2.588;2022-07-10T12:44:40;4.70;;;2.20;;
66970;SDS011;53901;51.466;-2.588;2022-07-10T12:49:49;3.25;;;2.40;;
66970;SDS011;53901;51.466;-2.588;2022-07-10T12:52:19;6.43;;;2.20;;
66970;SDS011;53901;51.466;-2.588;2022-07-10T13:00:20;3.15;;;2.20;;
66970;SDS011;53901;51.466;-2.588;2022-07-10T13:03:00;2.55;;;2.10;;
66970;SDS011;53901;51.466;-2.588;2022-07-10T13:08:05;2.80;;;1.90;;
66970;SDS011;53901;51.466;-2.588;2022-07-10T13:10:36;2.47;;;2.00;;
66970;SDS011;53901;51.466;-2.588;2022-07-10T13:13:04;3.42;;;2.05;;
66970;SDS011;53901;51.466;-2.588;2022-07-10T13:15:31;2.63;;;1.60;;
66970;SDS011;53901;51.466;-2.588;2022-07-10T13:17:57;3.10;;;1.60;;
66970;SDS011;53901;51.466;-2.588;2022-07-10T13:20:23;3.25;;;1.52;;
66970;SDS011;53901;51.466;-2.588;2022-07-10T13:22:48;2.20;;;1.70;;
66970;SDS011;53901;51.466;-2.588;2022-07-10T13:25:14;4.82;;;1.80;;
66970;SDS011;53901;51.466;-2.588;2022-07-10T13:27:39;1.48;;;1.23;;
66970;SDS011;53901;51.466;-2.588;2022-07-10T13:30:07;2.97;;;1.70;;
66970;SDS011;53901;51.466;-2.588;2022-07-10T13:32:32;1.85;;;1.40;;
66970;SDS011;53901;51.466;-2.588;2022-07-10T13:34:59;2.40;;;1.40;;
66970;SDS011;53901;51.466;-2.588;2022-07-10T13:37:25;2.40;;;1.60;;
66970;SDS011;53901;51.466;-2.588;2022-07-10T13:39:50;2.63;;;1.75;;
66970;SDS011;53901;51.466;-2.588;2022-07-10T13:42:16;1.92;;;1.50;;
66970;SDS011;53901;51.466;-2.588;2022-07-10T13:44:41;2.95;;;1.70;;
66970;SDS011;53901;51.466;-2.588;2022-07-10T13:47:07;3.40;;;2.00;;
66970;SDS011;53901;51.466;-2.588;2022-07-10T13:49:32;3.03;;;2.10;;
66970;SDS011;53901;51.466;-2.588;2022-07-10T13:51:57;3.15;;;2.10;;
66970;SDS011;53901;51.466;-2.588;2022-07-10T13:54:23;2.80;;;2.00;;
66970;SDS011;53901;51.466;-2.588;2022-07-10T13:56:48;3.10;;;2.22;;
66970;SDS011;53901;51.466;-2.588;2022-07-10T13:59:14;5.68;;;2.20;;
66970;SDS011;53901;51.466;-2.588;2022-07-10T14:01:40;2.60;;;2.20;;
66970;SDS011;53901;51.466;-2.588;2022-07-10T14:04:05;2.70;;;2.00;;
66970;SDS011;53901;51.466;-2.588;2022-07-10T14:06:31;4.45;;;2.30;;
66970;SDS011;53901;51.466;-2.588;2022-07-10T14:08:56;3.15;;;2.15;;
66970;SDS011;53901;51.466;-2.588;2022-07-10T14:11:21;5.20;;;2.30;;
66970;SDS011;53901;51.466;-2.588;2022-07-10T14:13:47;3.05;;;1.90;;
66970;SDS011;53901;51.466;-2.588;2022-07-10T14:16:15;4.05;;;2.17;;
66970;SDS011;53901;51.466;-2.588;2022-07-10T14:18:41;2.25;;;1.85;;
66970;SDS011;53901;51.466;-2.588;2022-07-10T14:21:07;3.92;;;2.20;;
66970;SDS011;53901;51.466;-2.588;2022-07-10T14:23:33;2.70;;;1.60;;
66970;SDS011;53901;51.466;-2.588;2022-07-10T14:26:00;3.13;;;1.60;;
66970;SDS011;53901;51.466;-2.588;2022-07-10T14:28:27;2.95;;;1.90;;
66970;SDS011;53901;51.466;-2.588;2022-07-10T14:30:53;2.60;;;1.60;;
66970;SDS011;53901;51.466;-2.588;2022-07-10T14:33:19;2.88;;;1.50;;
66970;SDS011;53901;51.466;-2.588;2022-07-10T14:35:44;2.13;;;1.70;;
66970;SDS011;53901;51.466;-2.588;2022-07-10T14:38:10;2.10;;;1.50;;
66970;SDS011;53901;51.466;-2.588;2022-07-10T14:40:35;1.92;;;1.45;;
66970;SDS011;53901;51.466;-2.588;2022-07-10T14:43:01;2.17;;;1.58;;
66970;SDS011;53901;51.466;-2.588;2022-07-10T14:45:26;3.00;;;1.10;;
66970;SDS011;53901;51.466;-2.588;2022-07-10T14:47:52;1.80;;;1.27;;
66970;SDS011;53901;51.466;-2.588;2022-07-10T14:50:22;1.80;;;1.10;;
66970;SDS011;53901;51.466;-2.588;2022-07-10T14:52:48;1.70;;;1.10;;
66970;SDS011;53901;51.466;-2.588;2022-07-10T14:55:14;2.30;;;1.25;;
66970;SDS011;53901;51.466;-2.588;2022-07-10T14:57:39;1.52;;;1.10;;
66970;SDS011;53901;51.466;-2.588;2022-07-10T15:00:05;1.13;;;0.90;;
66970;SDS011;53901;51.466;-2.588;2022-07-10T15:02:31;2.67;;;0.93;;
66970;SDS011;53901;51.466;-2.588;2022-07-10T15:04:56;4.28;;;1.30;;
66970;SDS011;53901;51.466;-2.588;2022-07-10T15:07:22;1.10;;;0.90;;
66970;SDS011;53901;51.466;-2.588;2022-07-10T15:09:47;2.70;;;1.23;;
66970;SDS011;53901;51.466;-2.588;2022-07-10T15:12:13;1.45;;;1.05;;
66970;SDS011;53901;51.466;-2.588;2022-07-10T15:14:38;1.13;;;0.70;;
66970;SDS011;53901;51.466;-2.588;2022-07-10T15:17:04;1.50;;;0.90;;
66970;SDS011;53901;51.466;-2.588;2022-07-10T15:19:29;1.73;;;0.82;;
66970;SDS011;53901;51.466;-2.588;2022-07-10T15:21:55;1.20;;;0.93;;
66970;SDS011;53901;51.466;-2.588;2022-07-10T15:24:21;1.70;;;1.15;;